createdAt,value
2023-03-18T00:01:35.643Z,9.00
2023-03-18T00:04:04.380Z,8.90
2023-03-18T00:06:33.939Z,8.90
2023-03-18T00:09:02.612Z,8.90
2023-03-18T00:11:30.813Z,8.90
2023-03-18T00:13:59.121Z,8.90
2023-03-18T00:16:28.009Z,8.80
2023-03-18T00:18:56.243Z,8.80
2023-03-18T00:21:24.585Z,8.80
2023-03-18T00:23:56.605Z,8.80
2023-03-18T00:26:24.964Z,8.90
2023-03-18T00:28:53.339Z,8.90
2023-03-18T00:31:21.794Z,8.90
2023-03-18T00:33:50.440Z,8.80
2023-03-18T00:36:25.621Z,8.90
2023-03-18T00:38:58.349Z,9.00
2023-03-18T00:41:27.440Z,9.00
2023-03-18T00:43:55.987Z,9.10
2023-03-18T00:46:27.552Z,9.00
2023-03-18T00:48:58.489Z,9.00
2023-03-18T00:51:30.508Z,9.00
2023-03-18T00:54:03.092Z,8.90
2023-03-18T00:56:33.504Z,8.90
2023-03-18T00:59:02.322Z,8.80
2023-03-18T01:01:31.649Z,8.80
2023-03-18T01:04:00.841Z,8.80
2023-03-18T01:06:32.725Z,8.80
2023-03-18T01:09:05.084Z,8.80
2023-03-18T01:11:34.298Z,8.70
2023-03-18T01:14:03.593Z,8.70
2023-03-18T01:16:31.945Z,8.60
2023-03-18T01:19:00.050Z,8.70
2023-03-18T01:21:28.636Z,8.60
2023-03-18T01:23:56.881Z,8.70
2023-03-18T01:26:26.473Z,8.80
2023-03-18T01:28:54.667Z,8.80
2023-03-18T01:31:24.270Z,8.80
2023-03-18T01:33:53.056Z,8.70
2023-03-18T01:36:22.134Z,8.70
2023-03-18T01:38:50.564Z,8.70
2023-03-18T01:41:18.798Z,8.60
2023-03-18T01:43:48.561Z,8.70
2023-03-18T01:46:37.876Z,8.70
2023-03-18T01:49:14.953Z,8.60
2023-03-18T01:51:46.386Z,8.50
2023-03-18T01:54:16.729Z,8.40
2023-03-18T01:56:49.309Z,8.30
2023-03-18T01:59:22.423Z,8.30
2023-03-18T02:01:57.766Z,8.20
2023-03-18T02:04:38.360Z,8.20
2023-03-18T02:07:07.879Z,8.00
2023-03-18T02:09:36.092Z,7.80
2023-03-18T02:12:04.887Z,7.50
2023-03-18T02:14:34.570Z,7.30
2023-03-18T02:17:11.607Z,7.40
2023-03-18T02:19:55.783Z,7.40
2023-03-18T02:22:33.177Z,7.20
2023-03-18T02:25:21.908Z,7.10
2023-03-18T02:27:56.762Z,7.00
2023-03-18T02:30:32.700Z,7.00
2023-03-18T02:33:02.535Z,7.00
2023-03-18T02:35:32.700Z,7.30
2023-03-18T02:38:01.166Z,7.30
2023-03-18T02:40:33.344Z,7.10
2023-03-18T02:43:21.164Z,6.90
2023-03-18T02:46:02.311Z,6.70
2023-03-18T02:48:38.780Z,6.60
2023-03-18T02:51:08.977Z,6.70
2023-03-18T02:53:37.596Z,6.40
2023-03-18T02:56:08.239Z,6.30
2023-03-18T02:58:39.367Z,6.30
2023-03-18T03:01:09.581Z,6.40
2023-03-18T03:03:38.731Z,6.30
2023-03-18T03:06:08.886Z,6.30
2023-03-18T03:08:37.229Z,6.40
2023-03-18T03:11:06.266Z,6.50
2023-03-18T03:13:34.363Z,6.40
2023-03-18T03:16:04.077Z,6.40
2023-03-18T03:18:32.452Z,6.40
2023-03-18T03:21:00.688Z,6.30
2023-03-18T03:23:29.438Z,6.30
2023-03-18T03:25:57.885Z,6.30
2023-03-18T03:28:27.016Z,6.20
2023-03-18T03:30:55.863Z,6.30
2023-03-18T03:33:26.516Z,6.40
2023-03-18T03:35:55.616Z,6.40
2023-03-18T03:38:24.491Z,6.20
2023-03-18T03:40:52.688Z,6.20
2023-03-18T03:43:21.206Z,6.10
2023-03-18T03:45:49.680Z,5.90
2023-03-18T03:48:17.749Z,5.70
2023-03-18T03:50:47.636Z,5.50
2023-03-18T03:53:15.843Z,5.40
2023-03-18T03:55:44.377Z,5.20
2023-03-18T03:58:12.415Z,5.10
2023-03-18T04:00:40.715Z,5.10
2023-03-18T04:03:12.454Z,5.10
2023-03-18T04:05:41.532Z,5.20
2023-03-18T04:08:12.518Z,5.40
2023-03-18T04:10:40.890Z,5.40
2023-03-18T04:13:09.037Z,5.30
2023-03-18T04:15:37.338Z,5.10
2023-03-18T04:18:07.266Z,5.10
2023-03-18T04:20:36.604Z,5.10
2023-03-18T04:23:04.902Z,5.30
2023-03-18T04:25:35.275Z,5.10
2023-03-18T04:28:04.354Z,4.90
2023-03-18T04:30:32.734Z,4.80
2023-03-18T04:33:01.931Z,5.00
2023-03-18T04:35:30.467Z,5.20
2023-03-18T04:37:58.985Z,5.10
2023-03-18T04:40:27.033Z,5.20
2023-03-18T04:42:56.732Z,5.30
2023-03-18T04:45:25.018Z,5.20
2023-03-18T04:47:53.718Z,5.20
2023-03-18T04:50:22.355Z,5.10
2023-03-18T04:52:50.458Z,5.10
2023-03-18T04:55:20.630Z,5.20
2023-03-18T04:57:50.657Z,5.20
2023-03-18T05:00:22.497Z,5.10
2023-03-18T05:02:51.160Z,5.10
2023-03-18T05:05:19.448Z,5.10
2023-03-18T05:07:47.871Z,5.00
2023-03-18T05:10:16.637Z,4.90
2023-03-18T05:12:44.762Z,4.90
2023-03-18T05:15:14.297Z,4.80
2023-03-18T05:17:43.799Z,4.60
2023-03-18T05:20:14.644Z,4.40
2023-03-18T05:22:42.891Z,4.20
2023-03-18T05:25:12.646Z,4.10
2023-03-18T05:27:41.829Z,4.00
2023-03-18T05:30:12.445Z,3.90
2023-03-18T05:32:41.487Z,3.80
2023-03-18T05:35:20.429Z,3.80
2023-03-18T05:37:49.234Z,3.80
2023-03-18T05:40:17.891Z,3.80
2023-03-18T05:42:55.709Z,3.80
2023-03-18T05:45:25.039Z,3.80
2023-03-18T05:47:53.508Z,3.70
2023-03-18T05:50:32.762Z,3.70
2023-03-18T05:53:01.404Z,3.90
2023-03-18T05:55:30.971Z,4.00
2023-03-18T05:58:00.919Z,4.20
2023-03-18T06:00:31.524Z,4.10
2023-03-18T06:03:01.803Z,3.90
2023-03-18T06:05:32.745Z,3.80
2023-03-18T06:08:02.841Z,3.70
2023-03-18T06:10:31.574Z,3.60
2023-03-18T06:13:00.364Z,3.60
2023-03-18T06:15:28.464Z,3.70
2023-03-18T06:17:57.576Z,4.30
2023-03-18T06:20:25.696Z,5.00
2023-03-18T06:22:55.298Z,5.50
2023-03-18T06:25:24.332Z,5.80
2023-03-18T06:27:52.833Z,6.00
2023-03-18T06:30:21.524Z,6.10
2023-03-18T06:32:49.856Z,6.30
2023-03-18T06:35:18.925Z,6.50
2023-03-18T06:37:47.071Z,6.50
2023-03-18T06:40:17.656Z,6.80
2023-03-18T06:42:45.816Z,7.30
2023-03-18T06:45:15.277Z,7.70
2023-03-18T06:47:43.970Z,8.00
2023-03-18T06:50:13.594Z,8.60
2023-03-18T06:52:42.275Z,8.90
2023-03-18T06:55:12.286Z,9.10
2023-03-18T06:57:42.082Z,9.50
2023-03-18T07:00:14.386Z,10.00
2023-03-18T07:02:46.370Z,10.50
2023-03-18T07:05:14.818Z,11.10
2023-03-18T07:07:42.932Z,11.80
2023-03-18T07:10:22.617Z,12.40
2023-03-18T07:12:52.746Z,12.20
2023-03-18T07:15:22.496Z,12.00
2023-03-18T07:17:52.403Z,11.50
2023-03-18T07:20:23.852Z,11.50
2023-03-18T07:22:52.751Z,11.50
2023-03-18T07:26:01.002Z,11.60
2023-03-18T07:28:33.089Z,11.40
2023-03-18T07:31:02.206Z,10.90
2023-03-18T07:33:31.442Z,10.90
2023-03-18T07:36:00.893Z,11.00
2023-03-18T07:38:29.856Z,10.80
2023-03-18T07:40:58.559Z,10.60
2023-03-18T07:43:27.362Z,10.40
2023-03-18T07:45:57.392Z,10.30
2023-03-18T07:48:26.396Z,10.30
2023-03-18T07:50:55.173Z,10.40
2023-03-18T07:53:23.617Z,10.80
2023-03-18T07:55:52.738Z,11.80
2023-03-18T07:58:23.031Z,13.50
2023-03-18T08:00:52.013Z,15.10
2023-03-18T08:03:22.709Z,15.90
2023-03-18T08:05:53.401Z,16.40
2023-03-18T08:08:22.785Z,16.70
2023-03-18T08:10:51.237Z,17.20
2023-03-18T08:13:20.303Z,17.50
2023-03-18T08:15:48.877Z,17.70
2023-03-18T08:18:17.373Z,17.70
2023-03-18T08:20:48.489Z,17.60
2023-03-18T08:23:17.084Z,17.60
2023-03-18T08:25:49.723Z,18.10
2023-03-18T08:28:18.228Z,18.40
2023-03-18T08:30:47.021Z,18.40
2023-03-18T08:33:15.906Z,18.20
2023-03-18T08:35:44.965Z,18.30
2023-03-18T08:38:14.907Z,18.70
2023-03-18T08:40:43.593Z,19.50
2023-03-18T08:43:11.710Z,20.20
2023-03-18T08:45:40.585Z,21.00
2023-03-18T08:48:08.859Z,21.70
2023-03-18T08:50:38.783Z,21.50
2023-03-18T08:53:06.931Z,21.80
2023-03-18T08:55:38.082Z,20.70
2023-03-18T08:58:08.329Z,19.20
2023-03-18T09:00:39.334Z,17.70
2023-03-18T09:03:08.795Z,17.10
2023-03-18T09:05:37.785Z,16.60
2023-03-18T09:08:06.719Z,16.30
2023-03-18T09:10:36.390Z,16.10
2023-03-18T09:13:07.300Z,15.90
2023-03-18T09:15:35.510Z,16.30
2023-03-18T09:18:12.082Z,16.70
2023-03-18T09:20:40.491Z,17.00
2023-03-18T09:23:10.233Z,17.30
2023-03-18T09:25:42.583Z,16.90
2023-03-18T09:28:11.036Z,16.70
2023-03-18T09:30:40.173Z,16.60
2023-03-18T09:33:11.625Z,16.40
2023-03-18T09:35:41.248Z,16.70
2023-03-18T09:38:14.420Z,17.10
2023-03-18T09:40:56.550Z,17.20
2023-03-18T09:43:45.067Z,17.40
2023-03-18T09:46:27.241Z,17.70
2023-03-18T09:49:29.634Z,17.70
2023-03-18T09:52:16.616Z,18.70
2023-03-18T09:54:55.426Z,18.70
2023-03-18T09:57:31.446Z,18.00
2023-03-18T10:00:09.309Z,18.10
2023-03-18T10:02:48.079Z,18.20
2023-03-18T10:05:22.564Z,17.90
2023-03-18T10:07:59.702Z,17.90
2023-03-18T10:10:36.054Z,18.30
2023-03-18T10:13:18.419Z,19.30
2023-03-18T10:15:54.721Z,18.90
2023-03-18T10:18:30.320Z,18.20
2023-03-18T10:21:13.104Z,17.60
2023-03-18T10:23:55.400Z,17.30
2023-03-18T10:26:33.447Z,16.80
2023-03-18T10:29:25.446Z,16.70
2023-03-18T10:32:10.329Z,16.90
2023-03-18T10:34:52.235Z,17.20
2023-03-18T10:37:35.942Z,17.10
2023-03-18T10:40:13.543Z,17.10
2023-03-18T10:42:42.943Z,16.80
2023-03-18T10:45:24.076Z,16.80
2023-03-18T10:48:06.204Z,16.80
2023-03-18T10:50:39.957Z,16.50
2023-03-18T10:53:21.239Z,16.60
2023-03-18T10:56:01.127Z,17.10
2023-03-18T10:58:30.121Z,17.50
2023-03-18T11:01:00.524Z,17.60
2023-03-18T11:03:34.696Z,17.80
2023-03-18T11:06:05.766Z,17.80
2023-03-18T11:08:37.378Z,17.30
2023-03-18T11:11:35.164Z,16.80
2023-03-18T11:14:06.387Z,16.70
2023-03-18T11:16:47.039Z,16.80
2023-03-18T11:19:32.329Z,16.90
2023-03-18T11:22:19.036Z,17.10
2023-03-18T11:24:48.997Z,17.30
2023-03-18T11:27:39.667Z,17.20
2023-03-18T11:30:40.599Z,17.20
2023-03-18T11:33:18.295Z,17.10
2023-03-18T11:35:53.211Z,17.50
2023-03-18T11:38:28.878Z,18.40
2023-03-18T11:41:08.629Z,19.60
2023-03-18T11:43:39.204Z,20.80
2023-03-18T11:46:12.211Z,21.40
2023-03-18T11:48:45.369Z,21.40
2023-03-18T11:51:45.823Z,21.70
2023-03-18T11:54:46.430Z,22.20
2023-03-18T11:57:23.616Z,21.50
2023-03-18T12:00:19.211Z,20.80
2023-03-18T12:03:36.997Z,20.10
2023-03-18T12:06:18.035Z,20.80
2023-03-18T12:09:01.601Z,20.40
2023-03-18T12:11:50.476Z,19.80
2023-03-18T12:14:32.666Z,20.10
2023-03-18T12:17:19.711Z,20.40
2023-03-18T12:20:15.073Z,20.70
2023-03-18T12:23:05.039Z,20.80
2023-03-18T12:25:59.984Z,20.30
2023-03-18T12:28:50.323Z,21.00
2023-03-18T12:31:46.800Z,22.00
2023-03-18T12:34:35.404Z,21.00
2023-03-18T12:37:26.667Z,20.70
2023-03-18T12:40:25.739Z,20.50
2023-03-18T12:43:15.612Z,20.60
2023-03-18T12:45:49.377Z,20.80
2023-03-18T12:48:42.719Z,21.00
2023-03-18T12:51:19.441Z,21.40
2023-03-18T12:53:54.456Z,22.00
2023-03-18T12:56:30.227Z,21.80
2023-03-18T12:59:09.724Z,21.50
2023-03-18T13:01:52.620Z,21.80
2023-03-18T13:04:27.149Z,21.90
2023-03-18T13:07:04.989Z,21.20
2023-03-18T13:09:42.926Z,20.50
2023-03-18T13:12:18.905Z,20.40
2023-03-18T13:15:00.624Z,21.00
2023-03-18T13:17:34.266Z,21.90
2023-03-18T13:20:13.354Z,21.90
2023-03-18T13:23:17.554Z,22.00
2023-03-18T13:26:03.867Z,21.70
2023-03-18T13:28:52.090Z,22.00
2023-03-18T13:31:38.358Z,22.10
2023-03-18T13:34:56.577Z,21.70
2023-03-18T13:38:07.707Z,21.20
2023-03-18T13:41:15.302Z,21.30
2023-03-18T13:43:49.480Z,21.20
2023-03-18T13:46:25.961Z,21.00
2023-03-18T13:48:58.831Z,21.20
2023-03-18T13:51:54.535Z,20.70
2023-03-18T13:54:23.636Z,20.80
2023-03-18T13:56:56.042Z,20.20
2023-03-18T13:59:48.666Z,19.50
2023-03-18T14:02:45.529Z,19.20
2023-03-18T14:05:40.273Z,19.60
2023-03-18T14:08:46.532Z,19.30
2023-03-18T14:11:50.389Z,19.90
2023-03-18T14:17:49.559Z,19.60
2023-03-18T14:20:25.390Z,18.90
2023-03-18T14:22:55.784Z,18.60
2023-03-18T14:25:42.464Z,19.00
2023-03-18T14:28:23.643Z,19.00
2023-03-18T14:31:15.788Z,19.50
2023-03-18T14:34:29.116Z,20.50
2023-03-18T14:37:27.799Z,21.10
2023-03-18T14:40:05.744Z,21.00
2023-03-18T14:42:54.232Z,21.10
2023-03-18T14:45:33.279Z,21.40
2023-03-18T14:48:13.103Z,21.30
2023-03-18T14:50:47.174Z,21.10
2023-03-18T14:53:25.516Z,20.80
2023-03-18T14:55:56.897Z,19.90
2023-03-18T14:58:26.211Z,19.20
2023-03-18T15:01:04.504Z,19.10
2023-03-18T15:03:34.376Z,19.80
2023-03-18T15:06:07.998Z,20.30
2023-03-18T15:08:48.018Z,20.10
2023-03-18T15:11:20.699Z,19.40
2023-03-18T15:13:48.904Z,18.90
2023-03-18T15:16:21.546Z,18.80
2023-03-18T15:18:54.723Z,18.70
2023-03-18T15:21:30.216Z,18.40
2023-03-18T15:24:03.507Z,17.90
2023-03-18T15:26:36.064Z,18.10
2023-03-18T15:29:25.952Z,18.00
2023-03-18T15:31:54.687Z,17.80
2023-03-18T15:34:28.993Z,18.20
2023-03-18T15:37:00.977Z,18.50
2023-03-18T15:39:37.015Z,18.80
2023-03-18T15:42:16.328Z,19.20
2023-03-18T15:44:46.762Z,19.10
2023-03-18T15:47:19.140Z,18.80
2023-03-18T15:49:55.711Z,18.60
2023-03-18T15:52:29.156Z,18.40
2023-03-18T15:54:57.813Z,18.30
2023-03-18T15:57:34.860Z,18.30
2023-03-18T16:00:04.477Z,18.40
2023-03-18T16:02:35.070Z,18.50
2023-03-18T16:05:09.325Z,18.50
2023-03-18T16:07:39.834Z,18.50
2023-03-18T16:10:10.188Z,18.40
2023-03-18T16:12:40.990Z,18.30
2023-03-18T16:15:22.088Z,18.10
2023-03-18T16:17:50.860Z,17.90
2023-03-18T16:20:22.835Z,17.50
2023-03-18T16:22:52.947Z,17.30
2023-03-18T16:25:21.475Z,17.20
2023-03-18T16:27:53.760Z,17.10
2023-03-18T16:30:25.997Z,16.80
2023-03-18T16:32:56.117Z,16.50
2023-03-18T16:35:28.004Z,16.10
2023-03-18T16:37:57.808Z,15.80
2023-03-18T16:40:28.226Z,15.60
2023-03-18T16:42:57.819Z,15.50
2023-03-18T16:45:30.736Z,15.40
2023-03-18T16:48:03.473Z,15.20
2023-03-18T16:50:37.841Z,15.10
2023-03-18T16:53:17.445Z,15.00
2023-03-18T16:55:48.049Z,14.90
2023-03-18T16:58:21.112Z,14.90
2023-03-18T17:00:49.596Z,14.90
2023-03-18T17:03:19.894Z,14.80
2023-03-18T17:05:51.967Z,14.80
2023-03-18T17:08:22.846Z,14.70
2023-03-18T17:10:57.789Z,14.60
2023-03-18T17:13:30.202Z,14.50
2023-03-18T17:15:58.499Z,14.30
2023-03-18T17:18:27.762Z,14.00
2023-03-18T17:20:56.217Z,13.70
2023-03-18T17:23:29.233Z,13.50
2023-03-18T17:26:00.400Z,13.20
2023-03-18T17:28:35.504Z,13.00
2023-03-18T17:31:05.018Z,12.60
2023-03-18T17:33:37.151Z,12.40
2023-03-18T17:36:07.772Z,12.10
2023-03-18T17:38:37.351Z,11.70
2023-03-18T17:41:16.328Z,11.40
2023-03-18T17:43:44.393Z,11.10
2023-03-18T17:46:12.645Z,10.90
2023-03-18T17:48:41.297Z,10.80
2023-03-18T17:51:16.860Z,10.70
2023-03-18T17:53:49.324Z,10.50
2023-03-18T17:56:20.198Z,10.30
2023-03-18T17:58:51.350Z,10.10
2023-03-18T18:01:26.412Z,9.80
2023-03-18T18:03:57.469Z,9.50
2023-03-18T18:06:29.654Z,9.40
2023-03-18T18:09:02.208Z,9.40
2023-03-18T18:11:32.956Z,9.40
2023-03-18T18:14:19.216Z,9.60
2023-03-18T18:16:49.145Z,9.80
2023-03-18T18:19:18.929Z,10.00
2023-03-18T18:21:48.170Z,10.20
2023-03-18T18:24:24.174Z,10.30
2023-03-18T18:26:52.721Z,10.40
2023-03-18T18:29:24.256Z,10.40
2023-03-18T18:31:55.651Z,10.30
2023-03-18T18:34:23.893Z,10.10
2023-03-18T18:36:52.352Z,9.80
2023-03-18T18:39:21.973Z,9.40
2023-03-18T18:41:50.073Z,9.20
2023-03-18T18:44:19.074Z,8.90
2023-03-18T18:46:47.611Z,8.70
2023-03-18T18:49:23.072Z,8.70
2023-03-18T18:51:53.666Z,8.60
2023-03-18T18:54:23.980Z,8.50
2023-03-18T18:56:52.709Z,8.50
2023-03-18T18:59:24.877Z,8.40
2023-03-18T19:01:53.652Z,8.40
2023-03-18T19:04:22.856Z,8.30
2023-03-18T19:06:52.224Z,8.20
2023-03-18T19:09:25.248Z,8.10
2023-03-18T19:11:56.195Z,8.00
2023-03-18T19:14:27.361Z,8.00
2023-03-18T19:16:58.965Z,7.90
2023-03-18T19:19:32.199Z,7.70
2023-03-18T19:22:00.372Z,7.60
2023-03-18T19:24:32.760Z,7.50
2023-03-18T19:27:04.152Z,7.50
2023-03-18T19:29:35.170Z,7.30
2023-03-18T19:32:04.751Z,7.30
2023-03-18T19:34:35.319Z,7.40
2023-03-18T19:37:05.776Z,7.30
2023-03-18T19:39:36.473Z,7.40
2023-03-18T19:42:04.904Z,7.50
2023-03-18T19:44:33.046Z,7.60
2023-03-18T19:47:01.478Z,7.70
2023-03-18T19:49:35.030Z,7.80
2023-03-18T19:52:06.062Z,7.90
2023-03-18T19:54:37.703Z,7.90
2023-03-18T19:57:14.024Z,7.90
2023-03-18T19:59:46.972Z,7.80
2023-03-18T20:02:26.087Z,7.60
2023-03-18T20:04:58.078Z,7.50
2023-03-18T20:07:30.060Z,7.50
2023-03-18T20:10:02.058Z,7.40
2023-03-18T20:12:37.170Z,7.50
2023-03-18T20:15:33.651Z,7.60
2023-03-18T20:18:02.155Z,7.60
2023-03-18T20:20:33.861Z,7.70
2023-03-18T20:23:06.343Z,7.80
2023-03-18T20:25:43.149Z,7.90
2023-03-18T20:28:17.157Z,7.90
2023-03-18T20:30:50.979Z,7.80
2023-03-18T20:33:20.842Z,7.70
2023-03-18T20:35:52.970Z,7.70
2023-03-18T20:38:29.683Z,7.70
2023-03-18T20:40:59.400Z,7.70
2023-03-18T20:43:29.326Z,7.70
2023-03-18T20:46:00.216Z,7.70
2023-03-18T20:48:28.990Z,7.80
2023-03-18T20:50:57.617Z,7.80
2023-03-18T20:53:29.038Z,7.80
2023-03-18T20:55:59.050Z,7.80
2023-03-18T20:58:28.740Z,7.90
2023-03-18T21:00:57.518Z,7.80
2023-03-18T21:03:29.477Z,7.90
2023-03-18T21:06:00.210Z,8.00
2023-03-18T21:08:29.513Z,8.10
2023-03-18T21:11:02.223Z,8.10
2023-03-18T21:13:33.805Z,8.20
2023-03-18T21:16:04.298Z,8.20
2023-03-18T21:18:32.434Z,8.20
2023-03-18T21:21:01.314Z,8.20
2023-03-18T21:23:32.757Z,8.20
2023-03-18T21:26:03.505Z,8.20
2023-03-18T21:28:31.834Z,8.10
2023-03-18T21:31:01.455Z,8.20
2023-03-18T21:33:32.747Z,8.20
2023-03-18T21:36:02.206Z,8.20
2023-03-18T21:38:34.881Z,8.10
2023-03-18T21:41:04.826Z,8.10
2023-03-18T21:43:35.724Z,8.20
2023-03-18T21:46:07.506Z,8.10
2023-03-18T21:48:36.078Z,8.20
2023-03-18T21:51:05.951Z,8.20
2023-03-18T21:53:34.467Z,8.20
2023-03-18T21:56:03.973Z,8.20
2023-03-18T21:58:32.038Z,8.30
2023-03-18T22:01:01.928Z,8.20
2023-03-18T22:03:31.524Z,8.20
2023-03-18T22:05:59.601Z,8.20
2023-03-18T22:08:28.189Z,8.30
2023-03-18T22:10:56.660Z,8.20
2023-03-18T22:13:28.230Z,8.20
2023-03-18T22:15:58.170Z,8.20
2023-03-18T22:18:26.467Z,8.20
2023-03-18T22:20:54.828Z,8.20
2023-03-18T22:23:25.561Z,8.20
2023-03-18T22:25:57.607Z,8.20
2023-03-18T22:28:28.091Z,8.20
2023-03-18T22:30:56.590Z,8.30
2023-03-18T22:33:28.869Z,8.30
2023-03-18T22:35:57.267Z,8.30
2023-03-18T22:38:26.151Z,8.20
2023-03-18T22:40:57.167Z,8.20
2023-03-18T22:43:38.496Z,8.20
2023-03-18T22:46:11.140Z,8.30
2023-03-18T22:48:40.136Z,8.10
2023-03-18T22:51:09.084Z,8.10
2023-03-18T22:53:41.118Z,8.10
2023-03-18T22:56:12.575Z,8.20
2023-03-18T22:58:42.323Z,8.20
2023-03-18T23:01:16.327Z,8.20
2023-03-18T23:03:46.783Z,8.20
2023-03-18T23:06:18.583Z,8.20
2023-03-18T23:08:47.238Z,8.30
2023-03-18T23:11:17.120Z,8.30
2023-03-18T23:13:50.858Z,8.30
2023-03-18T23:16:22.772Z,8.20
2023-03-18T23:18:51.871Z,8.20
2023-03-18T23:21:22.942Z,8.10
2023-03-18T23:23:52.407Z,8.10
2023-03-18T23:26:21.002Z,8.00
2023-03-18T23:28:50.560Z,7.90
2023-03-18T23:31:19.096Z,7.80
2023-03-18T23:33:47.493Z,7.70
2023-03-18T23:36:26.697Z,7.60
2023-03-18T23:38:57.542Z,7.50
2023-03-18T23:41:25.930Z,7.30
2023-03-18T23:43:55.755Z,7.10
2023-03-18T23:46:24.312Z,6.90
2023-03-18T23:48:53.330Z,6.70
2023-03-18T23:51:21.809Z,6.60
2023-03-18T23:53:50.215Z,6.50
2023-03-18T23:56:18.609Z,6.40
2023-03-18T23:58:47.404Z,6.40
